Terminal Aerodrome Forecast
Issued by NWS Twin Cities, MN

Home | Current Version | Previous Version | Text Only | Print | Product List | Glossary Off
Versions: 1 2 3 4 5 6 7 8 9 10 11 12 13

285
FTUS43 KMPX 251736
TAFEAU
TAF
KEAU 251736Z 2518/2618 30008KT P6SM FEW040
     FM260200 VRB03KT P6SM SKC
     FM261500 23007KT P6SM SCT100=

USA.gov is the U.S. government's official web portal to all federal, state and local government web resources and services.